sensor_id;sensor_type;location;lat;lon;timestamp;pressure;altitude;pressure_sealevel;temperature;humidity
22662;BME280;11497;52.222;21.246;2022-09-09T00:00:52;100195.56;;;11.70;95.54
22662;BME280;11497;52.222;21.246;2022-09-09T00:04:05;100188.03;;;11.62;95.71
22662;BME280;11497;52.222;21.246;2022-09-09T00:07:06;100186.34;;;11.61;96.30
22662;BME280;11497;52.222;21.246;2022-09-09T00:09:47;100186.88;;;11.70;96.81
22662;BME280;11497;52.222;21.246;2022-09-09T00:15:07;100182.78;;;11.62;98.02
22662;BME280;11497;52.222;21.246;2022-09-09T00:20:34;100177.13;;;11.51;98.15
22662;BME280;11497;52.222;21.246;2022-09-09T00:23:14;100172.56;;;11.56;98.82
22662;BME280;11497;52.222;21.246;2022-09-09T00:28:29;100166.59;;;11.53;99.03
22662;BME280;11497;52.222;21.246;2022-09-09T00:31:13;100168.91;;;11.60;99.32
22662;BME280;11497;52.222;21.246;2022-09-09T00:33:42;100164.28;;;11.45;99.56
22662;BME280;11497;52.222;21.246;2022-09-09T00:36:17;100162.19;;;11.53;99.97
22662;BME280;11497;52.222;21.246;2022-09-09T00:38:49;100158.66;;;11.54;99.87
22662;BME280;11497;52.222;21.246;2022-09-09T00:44:31;100157.94;;;11.51;100.00
22662;BME280;11497;52.222;21.246;2022-09-09T00:52:51;100157.63;;;11.58;100.00
22662;BME280;11497;52.222;21.246;2022-09-09T00:58:20;100153.28;;;11.57;100.00
22662;BME280;11497;52.222;21.246;2022-09-09T01:01:18;100144.25;;;11.64;100.00
22662;BME280;11497;52.222;21.246;2022-09-09T01:03:53;100150.38;;;11.43;100.00
22662;BME280;11497;52.222;21.246;2022-09-09T01:06:36;100147.81;;;11.42;100.00
22662;BME280;11497;52.222;21.246;2022-09-09T01:15:09;100159.28;;;11.39;100.00
22662;BME280;11497;52.222;21.246;2022-09-09T01:20:39;100145.25;;;11.40;100.00
22662;BME280;11497;52.222;21.246;2022-09-09T01:23:38;100153.66;;;11.48;100.00
22662;BME280;11497;52.222;21.246;2022-09-09T01:26:42;100145.88;;;11.47;100.00
22662;BME280;11497;52.222;21.246;2022-09-09T01:29:25;100143.69;;;11.36;100.00
22662;BME280;11497;52.222;21.246;2022-09-09T01:31:59;100140.44;;;11.51;100.00
22662;BME280;11497;52.222;21.246;2022-09-09T01:34:35;100139.91;;;11.43;100.00
22662;BME280;11497;52.222;21.246;2022-09-09T01:37:11;100141.47;;;11.47;100.00
22662;BME280;11497;52.222;21.246;2022-09-09T01:39:42;100140.63;;;11.47;100.00
22662;BME280;11497;52.222;21.246;2022-09-09T01:42:15;100142.56;;;11.42;100.00
22662;BME280;11497;52.222;21.246;2022-09-09T01:44:44;100132.16;;;11.40;100.00
22662;BME280;11497;52.222;21.246;2022-09-09T01:47:14;100140.13;;;11.37;100.00
22662;BME280;11497;52.222;21.246;2022-09-09T01:50:17;100134.53;;;11.46;100.00
22662;BME280;11497;52.222;21.246;2022-09-09T01:52:48;100153.91;;;11.42;100.00
22662;BME280;11497;52.222;21.246;2022-09-09T01:55:29;100140.03;;;11.40;100.00
22662;BME280;11497;52.222;21.246;2022-09-09T01:58:19;100137.69;;;11.54;100.00
22662;BME280;11497;52.222;21.246;2022-09-09T02:03:32;100130.50;;;11.59;100.00
22662;BME280;11497;52.222;21.246;2022-09-09T02:06:36;100124.59;;;11.54;100.00
22662;BME280;11497;52.222;21.246;2022-09-09T02:09:20;100137.69;;;11.54;100.00
22662;BME280;11497;52.222;21.246;2022-09-09T02:11:56;100137.56;;;11.57;100.00
22662;BME280;11497;52.222;21.246;2022-09-09T02:14:39;100129.78;;;11.56;100.00
22662;BME280;11497;52.222;21.246;2022-09-09T02:17:15;100136.06;;;11.72;100.00
22662;BME280;11497;52.222;21.246;2022-09-09T02:20:05;100136.53;;;11.61;100.00
22662;BME280;11497;52.222;21.246;2022-09-09T02:22:43;100124.88;;;11.69;100.00
22662;BME280;11497;52.222;21.246;2022-09-09T02:25:18;100132.19;;;11.60;100.00
22662;BME280;11497;52.222;21.246;2022-09-09T02:27:50;100124.59;;;11.75;100.00
22662;BME280;11497;52.222;21.246;2022-09-09T02:30:19;100135.19;;;11.72;100.00
22662;BME280;11497;52.222;21.246;2022-09-09T02:32:55;100133.00;;;11.62;100.00
22662;BME280;11497;52.222;21.246;2022-09-09T02:35:38;100125.00;;;11.65;100.00
22662;BME280;11497;52.222;21.246;2022-09-09T02:38:10;100133.19;;;11.58;100.00
22662;BME280;11497;52.222;21.246;2022-09-09T02:40:43;100133.66;;;11.68;100.00
22662;BME280;11497;52.222;21.246;2022-09-09T02:43:11;100139.69;;;11.70;100.00
22662;BME280;11497;52.222;21.246;2022-09-09T02:46:08;100129.09;;;11.71;100.00
22662;BME280;11497;52.222;21.246;2022-09-09T02:48:52;100127.66;;;11.86;100.00
22662;BME280;11497;52.222;21.246;2022-09-09T02:51:58;100139.97;;;11.84;100.00
22662;BME280;11497;52.222;21.246;2022-09-09T02:54:33;100139.31;;;11.79;100.00
22662;BME280;11497;52.222;21.246;2022-09-09T02:57:12;100132.44;;;11.75;100.00
22662;BME280;11497;52.222;21.246;2022-09-09T02:59:47;100133.44;;;11.72;100.00
22662;BME280;11497;52.222;21.246;2022-09-09T03:02:16;100132.22;;;11.81;100.00
22662;BME280;11497;52.222;21.246;2022-09-09T03:04:48;100139.38;;;11.77;100.00
22662;BME280;11497;52.222;21.246;2022-09-09T03:07:20;100142.41;;;11.88;100.00
22662;BME280;11497;52.222;21.246;2022-09-09T03:09:49;100137.59;;;11.78;100.00
22662;BME280;11497;52.222;21.246;2022-09-09T03:12:17;100137.63;;;11.76;100.00
22662;BME280;11497;52.222;21.246;2022-09-09T03:14:45;100142.88;;;11.76;100.00
22662;BME280;11497;52.222;21.246;2022-09-09T03:17:14;100134.34;;;11.93;100.00
22662;BME280;11497;52.222;21.246;2022-09-09T03:19:49;100134.59;;;11.87;100.00
22662;BME280;11497;52.222;21.246;2022-09-09T03:22:18;100129.47;;;11.84;100.00
22662;BME280;11497;52.222;21.246;2022-09-09T03:24:46;100127.28;;;11.73;100.00
22662;BME280;11497;52.222;21.246;2022-09-09T03:27:14;100127.06;;;11.79;100.00
22662;BME280;11497;52.222;21.246;2022-09-09T03:29:43;100122.53;;;11.83;100.00
22662;BME280;11497;52.222;21.246;2022-09-09T03:32:14;100125.94;;;11.85;100.00
22662;BME280;11497;52.222;21.246;2022-09-09T03:34:45;100126.28;;;11.76;100.00
22662;BME280;11497;52.222;21.246;2022-09-09T03:37:17;100124.50;;;11.78;100.00
22662;BME280;11497;52.222;21.246;2022-09-09T03:39:46;100129.75;;;11.78;100.00
22662;BME280;11497;52.222;21.246;2022-09-09T03:42:16;100124.09;;;11.87;100.00
22662;BME280;11497;52.222;21.246;2022-09-09T03:44:51;100123.13;;;11.89;100.00
22662;BME280;11497;52.222;21.246;2022-09-09T03:47:22;100124.09;;;11.87;100.00
22662;BME280;11497;52.222;21.246;2022-09-09T03:49:54;100120.31;;;11.94;100.00
22662;BME280;11497;52.222;21.246;2022-09-09T03:52:22;100118.28;;;12.01;100.00
22662;BME280;11497;52.222;21.246;2022-09-09T03:54:53;100115.19;;;11.91;100.00
22662;BME280;11497;52.222;21.246;2022-09-09T03:57:22;100111.84;;;11.87;100.00
22662;BME280;11497;52.222;21.246;2022-09-09T03:59:50;100117.81;;;11.91;100.00
22662;BME280;11497;52.222;21.246;2022-09-09T04:02:17;100111.53;;;11.95;100.00
22662;BME280;11497;52.222;21.246;2022-09-09T04:04:46;100125.44;;;11.97;100.00
22662;BME280;11497;52.222;21.246;2022-09-09T04:07:14;100127.38;;;11.92;100.00
22662;BME280;11497;52.222;21.246;2022-09-09T04:09:42;100119.72;;;11.87;100.00
22662;BME280;11497;52.222;21.246;2022-09-09T04:12:10;100121.28;;;11.91;100.00
22662;BME280;11497;52.222;21.246;2022-09-09T04:14:41;100127.25;;;11.95;100.00
22662;BME280;11497;52.222;21.246;2022-09-09T04:17:08;100124.91;;;11.89;100.00
22662;BME280;11497;52.222;21.246;2022-09-09T04:19:37;100130.78;;;11.94;100.00
22662;BME280;11497;52.222;21.246;2022-09-09T04:22:05;100127.50;;;11.89;100.00
22662;BME280;11497;52.222;21.246;2022-09-09T04:24:33;100131.72;;;11.93;100.00
22662;BME280;11497;52.222;21.246;2022-09-09T04:27:01;100130.66;;;11.97;100.00
22662;BME280;11497;52.222;21.246;2022-09-09T04:29:30;100128.50;;;12.07;100.00
22662;BME280;11497;52.222;21.246;2022-09-09T04:31:58;100128.31;;;12.11;100.00
22662;BME280;11497;52.222;21.246;2022-09-09T04:34:26;100133.69;;;12.08;100.00
22662;BME280;11497;52.222;21.246;2022-09-09T04:36:55;100125.03;;;12.06;100.00
22662;BME280;11497;52.222;21.246;2022-09-09T04:39:24;100130.41;;;12.03;100.00
22662;BME280;11497;52.222;21.246;2022-09-09T04:41:52;100130.28;;;12.06;100.00
22662;BME280;11497;52.222;21.246;2022-09-09T04:44:22;100127.59;;;12.08;100.00
22662;BME280;11497;52.222;21.246;2022-09-09T04:46:50;100128.56;;;12.05;100.00
22662;BME280;11497;52.222;21.246;2022-09-09T04:49:18;100124.13;;;12.07;100.00
22662;BME280;11497;52.222;21.246;2022-09-09T04:51:45;100131.69;;;12.13;100.00
22662;BME280;11497;52.222;21.246;2022-09-09T04:54:14;100127.47;;;12.11;100.00
22662;BME280;11497;52.222;21.246;2022-09-09T04:56:44;100130.16;;;12.09;100.00
22662;BME280;11497;52.222;21.246;2022-09-09T04:59:12;100137.59;;;12.18;100.00
22662;BME280;11497;52.222;21.246;2022-09-09T05:01:44;100135.09;;;12.15;100.00
22662;BME280;11497;52.222;21.246;2022-09-09T05:04:14;100140.22;;;12.18;100.00
22662;BME280;11497;52.222;21.246;2022-09-09T05:06:43;100139.41;;;12.16;100.00
22662;BME280;11497;52.222;21.246;2022-09-09T05:09:12;100142.19;;;12.13;100.00
22662;BME280;11497;52.222;21.246;2022-09-09T05:11:41;100140.06;;;12.21;100.00
22662;BME280;11497;52.222;21.246;2022-09-09T05:14:32;100144.59;;;12.18;100.00
22662;BME280;11497;52.222;21.246;2022-09-09T05:17:01;100146.84;;;12.27;100.00
22662;BME280;11497;52.222;21.246;2022-09-09T05:19:29;100147.75;;;12.26;100.00
22662;BME280;11497;52.222;21.246;2022-09-09T05:21:58;100144.13;;;12.28;100.00
22662;BME280;11497;52.222;21.246;2022-09-09T05:24:34;100145.56;;;12.36;100.00
22662;BME280;11497;52.222;21.246;2022-09-09T05:27:03;100152.88;;;12.29;100.00
22662;BME280;11497;52.222;21.246;2022-09-09T05:29:33;100143.09;;;12.32;100.00
22662;BME280;11497;52.222;21.246;2022-09-09T05:32:04;100137.00;;;12.32;100.00
22662;BME280;11497;52.222;21.246;2022-09-09T05:34:32;100150.81;;;12.36;100.00
22662;BME280;11497;52.222;21.246;2022-09-09T05:37:00;100148.34;;;12.32;100.00
22662;BME280;11497;52.222;21.246;2022-09-09T05:39:28;100150.69;;;12.39;100.00
22662;BME280;11497;52.222;21.246;2022-09-09T05:41:56;100152.25;;;12.43;100.00
22662;BME280;11497;52.222;21.246;2022-09-09T05:44:24;100147.94;;;12.42;100.00
22662;BME280;11497;52.222;21.246;2022-09-09T05:46:55;100151.22;;;12.47;100.00
22662;BME280;11497;52.222;21.246;2022-09-09T05:49:25;100159.16;;;12.45;100.00
22662;BME280;11497;52.222;21.246;2022-09-09T05:51:52;100156.25;;;12.51;100.00
22662;BME280;11497;52.222;21.246;2022-09-09T05:54:23;100150.78;;;12.56;100.00
22662;BME280;11497;52.222;21.246;2022-09-09T05:56:52;100155.41;;;12.51;100.00
22662;BME280;11497;52.222;21.246;2022-09-09T05:59:21;100159.72;;;12.52;100.00
22662;BME280;11497;52.222;21.246;2022-09-09T06:01:52;100159.72;;;12.52;100.00
22662;BME280;11497;52.222;21.246;2022-09-09T06:04:29;100163.13;;;12.54;100.00
22662;BME280;11497;52.222;21.246;2022-09-09T06:07:00;100162.22;;;12.55;100.00
22662;BME280;11497;52.222;21.246;2022-09-09T06:09:29;100163.41;;;12.66;100.00
22662;BME280;11497;52.222;21.246;2022-09-09T06:11:58;100165.69;;;12.74;100.00
22662;BME280;11497;52.222;21.246;2022-09-09T06:14:26;100172.00;;;12.70;100.00
22662;BME280;11497;52.222;21.246;2022-09-09T06:16:57;100179.22;;;12.65;100.00
22662;BME280;11497;52.222;21.246;2022-09-09T06:19:29;100169.38;;;12.70;100.00
22662;BME280;11497;52.222;21.246;2022-09-09T06:21:59;100174.69;;;12.69;100.00
22662;BME280;11497;52.222;21.246;2022-09-09T06:24:29;100179.34;;;12.82;100.00
22662;BME280;11497;52.222;21.246;2022-09-09T06:26:59;100176.63;;;12.84;100.00
22662;BME280;11497;52.222;21.246;2022-09-09T06:29:30;100188.00;;;12.84;100.00
22662;BME280;11497;52.222;21.246;2022-09-09T06:31:58;100186.84;;;12.71;100.00
22662;BME280;11497;52.222;21.246;2022-09-09T06:34:27;100190.69;;;12.83;100.00
22662;BME280;11497;52.222;21.246;2022-09-09T06:36:58;100186.56;;;12.77;100.00
22662;BME280;11497;52.222;21.246;2022-09-09T06:39:31;100188.13;;;12.81;100.00
22662;BME280;11497;52.222;21.246;2022-09-09T06:42:00;100191.69;;;12.80;100.00
22662;BME280;11497;52.222;21.246;2022-09-09T06:44:51;100189.06;;;12.80;100.00
22662;BME280;11497;52.222;21.246;2022-09-09T06:47:49;100189.69;;;12.85;100.00
22662;BME280;11497;52.222;21.246;2022-09-09T06:50:19;100194.75;;;12.90;100.00
22662;BME280;11497;52.222;21.246;2022-09-09T06:52:48;100199.41;;;13.02;100.00
22662;BME280;11497;52.222;21.246;2022-09-09T06:55:16;100193.69;;;12.94;100.00
22662;BME280;11497;52.222;21.246;2022-09-09T06:57:45;100197.69;;;13.01;100.00
22662;BME280;11497;52.222;21.246;2022-09-09T07:00:17;100197.69;;;13.01;100.00
22662;BME280;11497;52.222;21.246;2022-09-09T07:02:45;100200.06;;;13.07;100.00
22662;BME280;11497;52.222;21.246;2022-09-09T07:05:14;100202.75;;;13.06;100.00
22662;BME280;11497;52.222;21.246;2022-09-09T07:07:44;100196.16;;;12.97;100.00
22662;BME280;11497;52.222;21.246;2022-09-09T07:10:14;100205.38;;;13.06;100.00
22662;BME280;11497;52.222;21.246;2022-09-09T07:12:44;100201.69;;;13.10;100.00
22662;BME280;11497;52.222;21.246;2022-09-09T07:15:12;100206.41;;;13.22;100.00
22662;BME280;11497;52.222;21.246;2022-09-09T07:17:44;100203.91;;;13.19;100.00
22662;BME280;11497;52.222;21.246;2022-09-09T07:20:12;100204.56;;;13.24;100.00
22662;BME280;11497;52.222;21.246;2022-09-09T07:22:41;100215.72;;;13.29;100.00
22662;BME280;11497;52.222;21.246;2022-09-09T07:25:10;100208.16;;;13.40;100.00
22662;BME280;11497;52.222;21.246;2022-09-09T07:27:38;100222.25;;;13.39;100.00
22662;BME280;11497;52.222;21.246;2022-09-09T07:30:07;100216.97;;;13.39;100.00
22662;BME280;11497;52.222;21.246;2022-09-09T07:32:35;100208.78;;;13.45;100.00
22662;BME280;11497;52.222;21.246;2022-09-09T07:35:03;100229.03;;;13.43;100.00
22662;BME280;11497;52.222;21.246;2022-09-09T07:37:32;100234.47;;;13.40;100.00
22662;BME280;11497;52.222;21.246;2022-09-09T07:40:00;100225.34;;;13.47;100.00
22662;BME280;11497;52.222;21.246;2022-09-09T07:42:30;100231.59;;;13.45;100.00
22662;BME280;11497;52.222;21.246;2022-09-09T07:44:58;100233.28;;;13.46;100.00
22662;BME280;11497;52.222;21.246;2022-09-09T07:47:26;100233.56;;;13.58;100.00
22662;BME280;11497;52.222;21.246;2022-09-09T07:49:54;100235.16;;;13.80;100.00
22662;BME280;11497;52.222;21.246;2022-09-09T07:52:28;100240.22;;;13.65;100.00
22662;BME280;11497;52.222;21.246;2022-09-09T07:55:00;100234.97;;;13.65;100.00
22662;BME280;11497;52.222;21.246;2022-09-09T07:57:31;100236.69;;;13.67;100.00
22662;BME280;11497;52.222;21.246;2022-09-09T07:59:58;100245.50;;;13.65;100.00
22662;BME280;11497;52.222;21.246;2022-09-09T08:02:28;100245.06;;;13.56;100.00
22662;BME280;11497;52.222;21.246;2022-09-09T08:04:57;100245.34;;;13.69;100.00
22662;BME280;11497;52.222;21.246;2022-09-09T08:07:25;100256.75;;;13.50;100.00
22662;BME280;11497;52.222;21.246;2022-09-09T08:09:54;100259.84;;;13.58;100.00
22662;BME280;11497;52.222;21.246;2022-09-09T08:12:28;100257.66;;;13.49;100.00
22662;BME280;11497;52.222;21.246;2022-09-09T08:14:56;100260.28;;;13.49;100.00
22662;BME280;11497;52.222;21.246;2022-09-09T08:17:28;100254.75;;;13.55;100.00
22662;BME280;11497;52.222;21.246;2022-09-09T08:19:57;100258.28;;;13.54;100.00
22662;BME280;11497;52.222;21.246;2022-09-09T08:22:33;100258.00;;;13.60;100.00
22662;BME280;11497;52.222;21.246;2022-09-09T08:25:01;100246.91;;;13.73;100.00
22662;BME280;11497;52.222;21.246;2022-09-09T08:27:33;100252.50;;;13.84;100.00
22662;BME280;11497;52.222;21.246;2022-09-09T08:30:01;100251.25;;;13.91;100.00
22662;BME280;11497;52.222;21.246;2022-09-09T08:32:30;100253.81;;;13.92;100.00
22662;BME280;11497;52.222;21.246;2022-09-09T08:34:58;100257.28;;;13.93;100.00
22662;BME280;11497;52.222;21.246;2022-09-09T08:37:29;100265.41;;;13.88;100.00
22662;BME280;11497;52.222;21.246;2022-09-09T08:39:57;100264.88;;;13.82;100.00
22662;BME280;11497;52.222;21.246;2022-09-09T08:45:43;100281.44;;;13.84;100.00
22662;BME280;11497;52.222;21.246;2022-09-09T08:51:29;100269.06;;;13.86;100.00
22662;BME280;11497;52.222;21.246;2022-09-09T08:54:01;100278.13;;;13.97;100.00
22662;BME280;11497;52.222;21.246;2022-09-09T08:56:32;100281.53;;;13.99;100.00
22662;BME280;11497;52.222;21.246;2022-09-09T08:59:03;100277.97;;;14.01;100.00
22662;BME280;11497;52.222;21.246;2022-09-09T09:02:16;100282.88;;;13.89;100.00
22662;BME280;11497;52.222;21.246;2022-09-09T09:07:41;100283.22;;;14.01;100.00
22662;BME280;11497;52.222;21.246;2022-09-09T09:10:39;100281.38;;;14.03;100.00
22662;BME280;11497;52.222;21.246;2022-09-09T09:18:47;100291.38;;;14.13;99.50
22662;BME280;11497;52.222;21.246;2022-09-09T09:21:48;100302.91;;;14.11;99.50
22662;BME280;11497;52.222;21.246;2022-09-09T09:24:28;100299.28;;;14.13;99.75
22662;BME280;11497;52.222;21.246;2022-09-09T09:27:14;100304.09;;;14.22;99.52
22662;BME280;11497;52.222;21.246;2022-09-09T09:29:50;100304.88;;;14.24;99.40
22662;BME280;11497;52.222;21.246;2022-09-09T09:32:53;100307.78;;;14.18;99.22
22662;BME280;11497;52.222;21.246;2022-09-09T09:35:22;100305.31;;;14.15;99.53
22662;BME280;11497;52.222;21.246;2022-09-09T09:37:49;100309.34;;;14.22;100.00
22662;BME280;11497;52.222;21.246;2022-09-09T09:40:52;100305.56;;;14.28;100.00
22662;BME280;11497;52.222;21.246;2022-09-09T09:43:31;100316.03;;;14.29;99.52
22662;BME280;11497;52.222;21.246;2022-09-09T09:46:19;100306.66;;;14.24;98.86
22662;BME280;11497;52.222;21.246;2022-09-09T09:48:58;100300.38;;;14.26;98.69
22662;BME280;11497;52.222;21.246;2022-09-09T09:51:29;100302.38;;;14.21;98.67
22662;BME280;11497;52.222;21.246;2022-09-09T09:54:33;100310.06;;;14.43;99.17
22662;BME280;11497;52.222;21.246;2022-09-09T09:57:15;100307.28;;;14.46;98.45
22662;BME280;11497;52.222;21.246;2022-09-09T09:59:46;100308.88;;;14.31;98.61
22662;BME280;11497;52.222;21.246;2022-09-09T10:02:24;100308.50;;;14.39;98.97
22662;BME280;11497;52.222;21.246;2022-09-09T10:05:06;100310.41;;;14.36;99.18
22662;BME280;11497;52.222;21.246;2022-09-09T10:07:35;100310.47;;;14.53;99.68
22662;BME280;11497;52.222;21.246;2022-09-09T10:10:07;100312.16;;;14.54;99.39
22662;BME280;11497;52.222;21.246;2022-09-09T10:19:18;100317.91;;;14.62;98.38
22662;BME280;11497;52.222;21.246;2022-09-09T10:21:54;100315.25;;;14.79;98.57
22662;BME280;11497;52.222;21.246;2022-09-09T10:30:31;100328.41;;;14.79;97.21
22662;BME280;11497;52.222;21.246;2022-09-09T10:33:21;100336.47;;;14.76;97.30
22662;BME280;11497;52.222;21.246;2022-09-09T10:36:13;100333.06;;;14.74;97.03
22662;BME280;11497;52.222;21.246;2022-09-09T10:38:47;100340.88;;;14.76;96.89
22662;BME280;11497;52.222;21.246;2022-09-09T10:41:45;100340.56;;;14.82;96.96
22662;BME280;11497;52.222;21.246;2022-09-09T10:44:34;100339.09;;;14.76;97.05
22662;BME280;11497;52.222;21.246;2022-09-09T10:47:32;100346.22;;;14.74;97.29
22662;BME280;11497;52.222;21.246;2022-09-09T10:50:10;100352.28;;;14.76;97.79
22662;BME280;11497;52.222;21.246;2022-09-09T10:53:33;100345.56;;;14.71;97.28
22662;BME280;11497;52.222;21.246;2022-09-09T10:55:57;100362.91;;;14.57;97.58
22662;BME280;11497;52.222;21.246;2022-09-09T10:58:38;100363.28;;;14.50;97.31
22662;BME280;11497;52.222;21.246;2022-09-09T11:01:35;100368.88;;;14.61;97.73
22662;BME280;11497;52.222;21.246;2022-09-09T11:06:47;100366.84;;;14.49;98.00
22662;BME280;11497;52.222;21.246;2022-09-09T11:09:28;100376.16;;;14.56;98.68
22662;BME280;11497;52.222;21.246;2022-09-09T11:12:01;100390.25;;;14.55;99.28
22662;BME280;11497;52.222;21.246;2022-09-09T11:14:57;100385.94;;;14.71;99.30
22662;BME280;11497;52.222;21.246;2022-09-09T11:17:34;100382.19;;;14.75;99.36
22662;BME280;11497;52.222;21.246;2022-09-09T11:20:06;100385.16;;;14.69;98.27
22662;BME280;11497;52.222;21.246;2022-09-09T11:22:46;100387.63;;;14.72;98.37
22662;BME280;11497;52.222;21.246;2022-09-09T11:30:32;100382.53;;;14.69;98.88
22662;BME280;11497;52.222;21.246;2022-09-09T11:41:52;100397.22;;;14.90;99.11
22662;BME280;11497;52.222;21.246;2022-09-09T11:44:28;100395.69;;;14.86;98.61
22662;BME280;11497;52.222;21.246;2022-09-09T11:46:57;100400.78;;;14.89;98.45
22662;BME280;11497;52.222;21.246;2022-09-09T11:49:42;100402.75;;;14.69;98.05
22662;BME280;11497;52.222;21.246;2022-09-09T11:52:24;100403.53;;;14.71;98.49
22662;BME280;11497;52.222;21.246;2022-09-09T11:54:55;100407.75;;;14.90;98.06
22662;BME280;11497;52.222;21.246;2022-09-09T11:57:30;100405.13;;;14.73;97.45
22662;BME280;11497;52.222;21.246;2022-09-09T11:59:59;100391.94;;;14.73;98.00
22662;BME280;11497;52.222;21.246;2022-09-09T12:02:48;100392.56;;;14.78;97.97
22662;BME280;11497;52.222;21.246;2022-09-09T12:05:18;100391.72;;;14.78;97.96
22662;BME280;11497;52.222;21.246;2022-09-09T12:07:52;100396.47;;;14.71;97.59
22662;BME280;11497;52.222;21.246;2022-09-09T12:10:32;100394.91;;;14.67;97.62
22662;BME280;11497;52.222;21.246;2022-09-09T12:15:51;100395.22;;;14.61;98.58
22662;BME280;11497;52.222;21.246;2022-09-09T12:23:38;100397.63;;;14.66;97.77
22662;BME280;11497;52.222;21.246;2022-09-09T12:37:00;100409.75;;;14.51;98.04
22662;BME280;11497;52.222;21.246;2022-09-09T12:40:18;100414.72;;;14.57;98.39
22662;BME280;11497;52.222;21.246;2022-09-09T12:42:26;100416.00;;;14.67;98.24
22662;BME280;11497;52.222;21.246;2022-09-09T12:44:57;100413.03;;;14.73;98.15
22662;BME280;11497;52.222;21.246;2022-09-09T12:50:04;100409.22;;;14.79;97.73
22662;BME280;11497;52.222;21.246;2022-09-09T12:52:38;100410.09;;;14.79;97.83
22662;BME280;11497;52.222;21.246;2022-09-09T12:55:07;100408.63;;;14.91;97.92
22662;BME280;11497;52.222;21.246;2022-09-09T12:57:38;100396.91;;;14.96;97.31
22662;BME280;11497;52.222;21.246;2022-09-09T13:00:16;100383.88;;;15.11;96.75
22662;BME280;11497;52.222;21.246;2022-09-09T13:02:47;100384.22;;;15.20;96.08
22662;BME280;11497;52.222;21.246;2022-09-09T13:05:24;100386.31;;;15.31;95.59
22662;BME280;11497;52.222;21.246;2022-09-09T13:08:00;100391.06;;;15.24;95.27
22662;BME280;11497;52.222;21.246;2022-09-09T13:10:36;100396.06;;;15.46;95.12
22662;BME280;11497;52.222;21.246;2022-09-09T13:13:56;100404.75;;;15.48;93.72
22662;BME280;11497;52.222;21.246;2022-09-09T13:16:35;100401.66;;;15.40;93.50
22662;BME280;11497;52.222;21.246;2022-09-09T13:19:14;100402.25;;;15.45;93.22
22662;BME280;11497;52.222;21.246;2022-09-09T13:21:43;100407.50;;;15.62;92.74
22662;BME280;11497;52.222;21.246;2022-09-09T13:24:33;100408.03;;;15.69;91.63
22662;BME280;11497;52.222;21.246;2022-09-09T13:27:03;100395.94;;;15.65;90.43
22662;BME280;11497;52.222;21.246;2022-09-09T13:29:32;100387.28;;;15.79;90.47
22662;BME280;11497;52.222;21.246;2022-09-09T13:32:04;100397.31;;;15.88;90.09
22662;BME280;11497;52.222;21.246;2022-09-09T13:34:35;100388.03;;;15.81;90.38
22662;BME280;11497;52.222;21.246;2022-09-09T13:37:05;100398.44;;;15.84;91.01
22662;BME280;11497;52.222;21.246;2022-09-09T13:39:35;100395.59;;;15.71;90.43
22662;BME280;11497;52.222;21.246;2022-09-09T13:42:04;100393.38;;;15.63;90.49
22662;BME280;11497;52.222;21.246;2022-09-09T13:44:37;100390.00;;;15.77;90.59
22662;BME280;11497;52.222;21.246;2022-09-09T13:47:27;100380.97;;;15.81;90.59
22662;BME280;11497;52.222;21.246;2022-09-09T13:49:56;100376.91;;;15.91;90.79
22662;BME280;11497;52.222;21.246;2022-09-09T13:52:24;100383.00;;;16.08;89.93
22662;BME280;11497;52.222;21.246;2022-09-09T13:54:54;100385.16;;;16.01;89.03
22662;BME280;11497;52.222;21.246;2022-09-09T13:57:24;100389.16;;;15.92;88.56
22662;BME280;11497;52.222;21.246;2022-09-09T13:59:55;100383.38;;;15.86;88.89
22662;BME280;11497;52.222;21.246;2022-09-09T14:02:38;100395.63;;;15.87;88.31
22662;BME280;11497;52.222;21.246;2022-09-09T14:05:06;100393.03;;;15.70;87.96
22662;BME280;11497;52.222;21.246;2022-09-09T14:07:34;100394.16;;;15.66;88.81
22662;BME280;11497;52.222;21.246;2022-09-09T14:10:02;100403.44;;;15.73;88.69
22662;BME280;11497;52.222;21.246;2022-09-09T14:12:30;100409.56;;;15.73;89.03
22662;BME280;11497;52.222;21.246;2022-09-09T14:15:00;100400.72;;;15.58;89.29
22662;BME280;11497;52.222;21.246;2022-09-09T14:17:28;100396.75;;;15.50;89.92
22662;BME280;11497;52.222;21.246;2022-09-09T14:19:58;100394.84;;;15.36;90.08
22662;BME280;11497;52.222;21.246;2022-09-09T14:22:26;100415.44;;;15.45;90.49
22662;BME280;11497;52.222;21.246;2022-09-09T14:24:54;100412.53;;;15.34;90.71
22662;BME280;11497;52.222;21.246;2022-09-09T14:27:21;100412.38;;;15.37;90.96
22662;BME280;11497;52.222;21.246;2022-09-09T14:29:49;100414.38;;;15.32;91.21
22662;BME280;11497;52.222;21.246;2022-09-09T14:32:17;100410.19;;;15.45;91.02
22662;BME280;11497;52.222;21.246;2022-09-09T14:34:45;100410.97;;;15.30;91.14
22662;BME280;11497;52.222;21.246;2022-09-09T14:37:12;100417.94;;;15.31;91.96
22662;BME280;11497;52.222;21.246;2022-09-09T14:39:40;100414.22;;;15.35;91.76
22662;BME280;11497;52.222;21.246;2022-09-09T14:42:08;100416.09;;;15.33;91.83
22662;BME280;11497;52.222;21.246;2022-09-09T14:44:38;100414.06;;;15.38;91.75
22662;BME280;11497;52.222;21.246;2022-09-09T14:47:06;100417.78;;;15.51;91.48